sensor_id;sensor_type;location;lat;lon;timestamp;pressure;altitude;pressure_sealevel;temperature;humidity
76229;BME280;65021;53.174;18.160;2023-04-24T00:01:04;100131.16;;;11.63;82.05
76229;BME280;65021;53.174;18.160;2023-04-24T00:03:33;100129.67;;;11.63;82.32
76229;BME280;65021;53.174;18.160;2023-04-24T00:06:00;100133.56;;;11.64;82.58
76229;BME280;65021;53.174;18.160;2023-04-24T00:08:28;100131.63;;;11.65;82.36
76229;BME280;65021;53.174;18.160;2023-04-24T00:10:55;100132.59;;;11.67;82.20
76229;BME280;65021;53.174;18.160;2023-04-24T00:13:22;100134.52;;;11.69;82.33
76229;BME280;65021;53.174;18.160;2023-04-24T00:15:48;100132.67;;;11.68;82.06
76229;BME280;65021;53.174;18.160;2023-04-24T00:18:15;100127.50;;;11.68;82.18
76229;BME280;65021;53.174;18.160;2023-04-24T00:20:42;100126.48;;;11.68;82.45
76229;BME280;65021;53.174;18.160;2023-04-24T00:23:09;100121.67;;;11.67;82.10
76229;BME280;65021;53.174;18.160;2023-04-24T00:25:36;100114.08;;;11.64;82.39
76229;BME280;65021;53.174;18.160;2023-04-24T00:28:03;100106.44;;;11.61;83.02
76229;BME280;65021;53.174;18.160;2023-04-24T00:30:29;100104.33;;;11.56;82.59
76229;BME280;65021;53.174;18.160;2023-04-24T00:32:57;100103.41;;;11.51;82.62
76229;BME280;65021;53.174;18.160;2023-04-24T00:35:24;100108.81;;;11.51;82.43
76229;BME280;65021;53.174;18.160;2023-04-24T00:37:50;100104.48;;;11.51;82.53
76229;BME280;65021;53.174;18.160;2023-04-24T00:40:17;100102.89;;;11.48;82.42
76229;BME280;65021;53.174;18.160;2023-04-24T00:42:44;100105.42;;;11.45;82.55
76229;BME280;65021;53.174;18.160;2023-04-24T00:45:11;100102.63;;;11.42;82.63
76229;BME280;65021;53.174;18.160;2023-04-24T00:47:38;100098.87;;;11.37;82.54
76229;BME280;65021;53.174;18.160;2023-04-24T00:50:07;100094.69;;;11.35;83.03
76229;BME280;65021;53.174;18.160;2023-04-24T00:52:34;100088.55;;;11.34;83.14
76229;BME280;65021;53.174;18.160;2023-04-24T00:55:00;100083.52;;;11.33;83.10
76229;BME280;65021;53.174;18.160;2023-04-24T00:57:27;100090.55;;;11.34;83.06
76229;BME280;65021;53.174;18.160;2023-04-24T00:59:54;100089.01;;;11.36;83.43
76229;BME280;65021;53.174;18.160;2023-04-24T01:02:21;100090.06;;;11.35;82.92
76229;BME280;65021;53.174;18.160;2023-04-24T01:04:50;100094.22;;;11.33;82.50
76229;BME280;65021;53.174;18.160;2023-04-24T01:07:22;100097.84;;;11.33;82.39
76229;BME280;65021;53.174;18.160;2023-04-24T01:09:50;100099.52;;;11.34;82.61
76229;BME280;65021;53.174;18.160;2023-04-24T01:12:19;100092.40;;;11.34;82.95
76229;BME280;65021;53.174;18.160;2023-04-24T01:14:46;100091.79;;;11.35;83.24
76229;BME280;65021;53.174;18.160;2023-04-24T01:17:13;100089.39;;;11.34;83.07
76229;BME280;65021;53.174;18.160;2023-04-24T01:19:39;100088.31;;;11.33;83.26
76229;BME280;65021;53.174;18.160;2023-04-24T01:22:13;100087.83;;;11.34;83.21
76229;BME280;65021;53.174;18.160;2023-04-24T01:24:41;100085.67;;;11.34;83.41
76229;BME280;65021;53.174;18.160;2023-04-24T01:27:09;100085.29;;;11.37;83.48
76229;BME280;65021;53.174;18.160;2023-04-24T01:29:39;100076.55;;;11.37;83.75
76229;BME280;65021;53.174;18.160;2023-04-24T01:32:06;100074.48;;;11.35;83.67
76229;BME280;65021;53.174;18.160;2023-04-24T01:34:33;100069.91;;;11.34;83.67
76229;BME280;65021;53.174;18.160;2023-04-24T01:37:01;100066.19;;;11.34;83.87
76229;BME280;65021;53.174;18.160;2023-04-24T01:39:31;100069.58;;;11.34;83.99
76229;BME280;65021;53.174;18.160;2023-04-24T01:42:02;100069.67;;;11.34;84.06
76229;BME280;65021;53.174;18.160;2023-04-24T01:44:29;100071.46;;;11.34;83.67
76229;BME280;65021;53.174;18.160;2023-04-24T01:46:57;100071.27;;;11.31;83.35
76229;BME280;65021;53.174;18.160;2023-04-24T01:49:26;100069.70;;;11.28;83.50
76229;BME280;65021;53.174;18.160;2023-04-24T01:51:52;100067.31;;;11.27;84.09
76229;BME280;65021;53.174;18.160;2023-04-24T01:54:19;100067.98;;;11.28;84.19
76229;BME280;65021;53.174;18.160;2023-04-24T01:56:46;100067.77;;;11.28;84.00
76229;BME280;65021;53.174;18.160;2023-04-24T01:59:13;100066.52;;;11.27;83.95
76229;BME280;65021;53.174;18.160;2023-04-24T02:01:41;100063.02;;;11.26;84.04
76229;BME280;65021;53.174;18.160;2023-04-24T02:04:08;100063.52;;;11.27;84.05
76229;BME280;65021;53.174;18.160;2023-04-24T02:06:35;100061.81;;;11.28;84.18
76229;BME280;65021;53.174;18.160;2023-04-24T02:09:02;100059.28;;;11.27;84.21
76229;BME280;65021;53.174;18.160;2023-04-24T02:11:32;100058.05;;;11.26;84.19
76229;BME280;65021;53.174;18.160;2023-04-24T02:13:58;100056.38;;;11.25;84.12
76229;BME280;65021;53.174;18.160;2023-04-24T02:16:25;100055.36;;;11.23;84.16
76229;BME280;65021;53.174;18.160;2023-04-24T02:18:59;100052.57;;;11.22;83.98
76229;BME280;65021;53.174;18.160;2023-04-24T02:21:26;100052.23;;;11.20;83.80
76229;BME280;65021;53.174;18.160;2023-04-24T02:23:57;100051.78;;;11.18;83.68
76229;BME280;65021;53.174;18.160;2023-04-24T02:26:24;100049.94;;;11.17;83.79
76229;BME280;65021;53.174;18.160;2023-04-24T02:28:51;100047.09;;;11.16;83.74
76229;BME280;65021;53.174;18.160;2023-04-24T02:31:18;100046.86;;;11.16;83.83
76229;BME280;65021;53.174;18.160;2023-04-24T02:33:44;100045.48;;;11.15;83.90
76229;BME280;65021;53.174;18.160;2023-04-24T02:36:11;100040.66;;;11.12;83.86
76229;BME280;65021;53.174;18.160;2023-04-24T02:38:38;100036.71;;;11.10;83.77
76229;BME280;65021;53.174;18.160;2023-04-24T02:41:04;100034.30;;;11.08;84.02
76229;BME280;65021;53.174;18.160;2023-04-24T02:43:32;100035.06;;;11.06;84.04
76229;BME280;65021;53.174;18.160;2023-04-24T02:45:59;100034.73;;;11.04;84.25
76229;BME280;65021;53.174;18.160;2023-04-24T02:48:26;100030.02;;;11.02;84.36
76229;BME280;65021;53.174;18.160;2023-04-24T02:50:54;100029.57;;;11.00;84.20
76229;BME280;65021;53.174;18.160;2023-04-24T02:53:20;100029.40;;;11.01;84.84
76229;BME280;65021;53.174;18.160;2023-04-24T02:55:47;100025.46;;;11.01;84.81
76229;BME280;65021;53.174;18.160;2023-04-24T02:58:14;100024.17;;;11.01;84.30
76229;BME280;65021;53.174;18.160;2023-04-24T03:00:40;100023.69;;;11.03;84.39
76229;BME280;65021;53.174;18.160;2023-04-24T03:03:07;100023.27;;;11.04;84.72
76229;BME280;65021;53.174;18.160;2023-04-24T03:05:34;100020.04;;;11.05;84.75
76229;BME280;65021;53.174;18.160;2023-04-24T03:08:00;100019.09;;;11.06;84.84
76229;BME280;65021;53.174;18.160;2023-04-24T03:10:27;100019.21;;;11.06;84.84
76229;BME280;65021;53.174;18.160;2023-04-24T03:12:53;100018.16;;;11.08;85.31
76229;BME280;65021;53.174;18.160;2023-04-24T03:15:21;100020.80;;;11.10;85.36
76229;BME280;65021;53.174;18.160;2023-04-24T03:17:48;100020.19;;;11.10;85.07
76229;BME280;65021;53.174;18.160;2023-04-24T03:20:15;100021.80;;;11.10;85.02
76229;BME280;65021;53.174;18.160;2023-04-24T03:22:42;100025.36;;;11.11;85.14
76229;BME280;65021;53.174;18.160;2023-04-24T03:25:09;100022.08;;;11.13;85.05
76229;BME280;65021;53.174;18.160;2023-04-24T03:27:36;100021.39;;;11.15;84.87
76229;BME280;65021;53.174;18.160;2023-04-24T03:30:04;100020.40;;;11.17;84.83
76229;BME280;65021;53.174;18.160;2023-04-24T03:32:31;100020.14;;;11.19;84.93
76229;BME280;65021;53.174;18.160;2023-04-24T03:34:58;100022.37;;;11.21;85.02
76229;BME280;65021;53.174;18.160;2023-04-24T03:37:25;100025.17;;;11.24;84.98
76229;BME280;65021;53.174;18.160;2023-04-24T03:39:52;100025.36;;;11.28;84.94
76229;BME280;65021;53.174;18.160;2023-04-24T03:42:19;100028.38;;;11.32;84.83
76229;BME280;65021;53.174;18.160;2023-04-24T03:44:45;100034.36;;;11.36;84.79
76229;BME280;65021;53.174;18.160;2023-04-24T03:47:12;100035.83;;;11.40;84.58
76229;BME280;65021;53.174;18.160;2023-04-24T03:49:39;100040.98;;;11.45;84.40
76229;BME280;65021;53.174;18.160;2023-04-24T03:52:06;100039.62;;;11.49;84.27
76229;BME280;65021;53.174;18.160;2023-04-24T03:54:32;100039.30;;;11.54;84.20
76229;BME280;65021;53.174;18.160;2023-04-24T03:56:59;100033.88;;;11.59;84.12
76229;BME280;65021;53.174;18.160;2023-04-24T03:59:26;100036.20;;;11.64;84.07
76229;BME280;65021;53.174;18.160;2023-04-24T04:01:52;100033.95;;;11.68;84.04
76229;BME280;65021;53.174;18.160;2023-04-24T04:04:19;100031.02;;;11.72;83.84
76229;BME280;65021;53.174;18.160;2023-04-24T04:06:46;100029.36;;;11.75;83.96
76229;BME280;65021;53.174;18.160;2023-04-24T04:09:13;100022.36;;;11.78;83.90
76229;BME280;65021;53.174;18.160;2023-04-24T04:11:39;100023.27;;;11.80;83.87
76229;BME280;65021;53.174;18.160;2023-04-24T04:14:06;100021.83;;;11.81;83.79
76229;BME280;65021;53.174;18.160;2023-04-24T04:16:32;100018.31;;;11.83;83.93
76229;BME280;65021;53.174;18.160;2023-04-24T04:18:59;100012.47;;;11.81;84.04
76229;BME280;65021;53.174;18.160;2023-04-24T04:21:26;100010.22;;;11.78;84.23
76229;BME280;65021;53.174;18.160;2023-04-24T04:23:53;100009.27;;;11.75;84.19
76229;BME280;65021;53.174;18.160;2023-04-24T04:26:20;100010.48;;;11.74;84.32
76229;BME280;65021;53.174;18.160;2023-04-24T04:28:47;100008.98;;;11.74;84.37
76229;BME280;65021;53.174;18.160;2023-04-24T04:31:15;100010.98;;;11.74;84.43
76229;BME280;65021;53.174;18.160;2023-04-24T04:33:45;100009.42;;;11.74;84.58
76229;BME280;65021;53.174;18.160;2023-04-24T04:36:11;100009.59;;;11.74;84.36
76229;BME280;65021;53.174;18.160;2023-04-24T04:38:38;100011.11;;;11.76;84.55
76229;BME280;65021;53.174;18.160;2023-04-24T04:41:06;100010.44;;;11.77;84.59
76229;BME280;65021;53.174;18.160;2023-04-24T04:43:33;100008.33;;;11.80;84.41
76229;BME280;65021;53.174;18.160;2023-04-24T04:46:01;100004.18;;;11.82;84.37
76229;BME280;65021;53.174;18.160;2023-04-24T04:48:30;100006.63;;;11.84;84.47
76229;BME280;65021;53.174;18.160;2023-04-24T04:50:58;100006.14;;;11.87;84.31
76229;BME280;65021;53.174;18.160;2023-04-24T04:53:24;100009.48;;;11.90;84.25
76229;BME280;65021;53.174;18.160;2023-04-24T04:55:52;100010.39;;;11.92;84.21
76229;BME280;65021;53.174;18.160;2023-04-24T04:58:18;100008.90;;;11.95;84.31
76229;BME280;65021;53.174;18.160;2023-04-24T05:00:45;100007.91;;;12.00;84.24
76229;BME280;65021;53.174;18.160;2023-04-24T05:03:12;100000.46;;;12.06;84.11
76229;BME280;65021;53.174;18.160;2023-04-24T05:05:39;100001.65;;;12.16;84.15
76229;BME280;65021;53.174;18.160;2023-04-24T05:08:07;99997.15;;;12.29;84.09
76229;BME280;65021;53.174;18.160;2023-04-24T05:10:34;99997.13;;;12.49;83.77
76229;BME280;65021;53.174;18.160;2023-04-24T05:13:03;99988.05;;;12.76;83.46
76229;BME280;65021;53.174;18.160;2023-04-24T05:15:31;99986.34;;;13.19;82.74
76229;BME280;65021;53.174;18.160;2023-04-24T05:17:58;99979.27;;;13.52;82.49
76229;BME280;65021;53.174;18.160;2023-04-24T05:20:25;99980.45;;;13.89;81.93
76229;BME280;65021;53.174;18.160;2023-04-24T05:22:51;99979.43;;;14.12;82.02
76229;BME280;65021;53.174;18.160;2023-04-24T05:25:18;99975.02;;;14.21;81.89
76229;BME280;65021;53.174;18.160;2023-04-24T05:27:44;99975.14;;;14.27;81.63
76229;BME280;65021;53.174;18.160;2023-04-24T05:30:13;99980.61;;;14.30;81.09
76229;BME280;65021;53.174;18.160;2023-04-24T05:32:40;99977.10;;;14.32;80.72
76229;BME280;65021;53.174;18.160;2023-04-24T05:35:07;99975.29;;;14.34;80.65
76229;BME280;65021;53.174;18.160;2023-04-24T05:37:33;99973.66;;;14.44;80.69
76229;BME280;65021;53.174;18.160;2023-04-24T05:40:00;99976.71;;;14.52;80.27
76229;BME280;65021;53.174;18.160;2023-04-24T05:42:27;99972.42;;;14.52;80.20
76229;BME280;65021;53.174;18.160;2023-04-24T05:44:53;99970.64;;;14.51;80.31
76229;BME280;65021;53.174;18.160;2023-04-24T05:47:20;99973.52;;;14.56;80.10
76229;BME280;65021;53.174;18.160;2023-04-24T05:49:48;99968.20;;;14.63;79.97
76229;BME280;65021;53.174;18.160;2023-04-24T05:52:14;99970.88;;;14.70;79.33
76229;BME280;65021;53.174;18.160;2023-04-24T05:54:41;99971.23;;;14.80;79.11
76229;BME280;65021;53.174;18.160;2023-04-24T05:57:07;99971.96;;;14.98;79.02
76229;BME280;65021;53.174;18.160;2023-04-24T05:59:37;99971.48;;;15.19;78.77
76229;BME280;65021;53.174;18.160;2023-04-24T06:02:05;99964.11;;;15.42;78.90
76229;BME280;65021;53.174;18.160;2023-04-24T06:04:32;99965.39;;;15.77;78.34
76229;BME280;65021;53.174;18.160;2023-04-24T06:06:59;99965.30;;;16.31;77.99
76229;BME280;65021;53.174;18.160;2023-04-24T06:09:26;99966.84;;;16.57;77.72
76229;BME280;65021;53.174;18.160;2023-04-24T06:11:53;99965.05;;;16.66;77.06
76229;BME280;65021;53.174;18.160;2023-04-24T06:14:19;99962.13;;;16.73;76.90
76229;BME280;65021;53.174;18.160;2023-04-24T06:16:46;99970.04;;;16.74;77.01
76229;BME280;65021;53.174;18.160;2023-04-24T06:19:13;99966.98;;;16.65;76.35
76229;BME280;65021;53.174;18.160;2023-04-24T06:21:39;99963.52;;;16.49;75.16
76229;BME280;65021;53.174;18.160;2023-04-24T06:24:06;99963.84;;;16.35;75.42
76229;BME280;65021;53.174;18.160;2023-04-24T06:26:32;99962.55;;;16.28;75.51
76229;BME280;65021;53.174;18.160;2023-04-24T06:28:59;99960.91;;;16.31;75.99
76229;BME280;65021;53.174;18.160;2023-04-24T06:31:26;99959.66;;;16.33;75.64
76229;BME280;65021;53.174;18.160;2023-04-24T06:33:53;99951.72;;;16.34;75.70
76229;BME280;65021;53.174;18.160;2023-04-24T06:36:19;99948.52;;;16.35;75.50
76229;BME280;65021;53.174;18.160;2023-04-24T06:38:46;99943.55;;;16.37;75.65
76229;BME280;65021;53.174;18.160;2023-04-24T06:41:13;99945.09;;;16.40;75.49
76229;BME280;65021;53.174;18.160;2023-04-24T06:43:39;99945.28;;;16.48;75.24
76229;BME280;65021;53.174;18.160;2023-04-24T06:46:06;99942.20;;;16.61;75.05
76229;BME280;65021;53.174;18.160;2023-04-24T06:48:33;99939.98;;;16.81;74.65
76229;BME280;65021;53.174;18.160;2023-04-24T06:50:59;99943.93;;;16.90;73.79
76229;BME280;65021;53.174;18.160;2023-04-24T06:53:26;99939.91;;;16.88;74.39
76229;BME280;65021;53.174;18.160;2023-04-24T06:55:53;99940.89;;;16.90;74.06
76229;BME280;65021;53.174;18.160;2023-04-24T06:58:20;99939.11;;;16.92;74.18
76229;BME280;65021;53.174;18.160;2023-04-24T07:00:46;99941.48;;;16.89;73.71
76229;BME280;65021;53.174;18.160;2023-04-24T07:03:13;99942.42;;;16.86;73.50
76229;BME280;65021;53.174;18.160;2023-04-24T07:05:40;99941.52;;;16.83;72.97
76229;BME280;65021;53.174;18.160;2023-04-24T07:08:07;99941.05;;;16.78;73.33
76229;BME280;65021;53.174;18.160;2023-04-24T07:10:34;99942.48;;;16.76;73.34
76229;BME280;65021;53.174;18.160;2023-04-24T07:13:01;99940.21;;;16.71;73.13
76229;BME280;65021;53.174;18.160;2023-04-24T07:15:28;99939.87;;;16.71;73.04
76229;BME280;65021;53.174;18.160;2023-04-24T07:17:55;99936.71;;;16.76;72.98
76229;BME280;65021;53.174;18.160;2023-04-24T07:20:21;99939.48;;;16.85;72.54
76229;BME280;65021;53.174;18.160;2023-04-24T07:22:48;99932.36;;;17.00;72.03
76229;BME280;65021;53.174;18.160;2023-04-24T07:25:15;99929.70;;;17.18;72.07
76229;BME280;65021;53.174;18.160;2023-04-24T07:27:42;99921.28;;;17.44;71.83
76229;BME280;65021;53.174;18.160;2023-04-24T07:30:09;99919.86;;;17.67;71.01
76229;BME280;65021;53.174;18.160;2023-04-24T07:32:36;99922.30;;;17.83;70.16
76229;BME280;65021;53.174;18.160;2023-04-24T07:35:03;99917.16;;;17.94;69.81
76229;BME280;65021;53.174;18.160;2023-04-24T07:37:29;99920.30;;;18.07;69.68
76229;BME280;65021;53.174;18.160;2023-04-24T07:39:56;99916.46;;;18.13;69.51
76229;BME280;65021;53.174;18.160;2023-04-24T07:42:23;99920.73;;;18.13;68.18
76229;BME280;65021;53.174;18.160;2023-04-24T07:44:50;99921.05;;;18.19;68.18
76229;BME280;65021;53.174;18.160;2023-04-24T07:47:17;99918.04;;;18.27;68.28
76229;BME280;65021;53.174;18.160;2023-04-24T07:49:44;99924.31;;;18.33;68.57
76229;BME280;65021;53.174;18.160;2023-04-24T07:52:10;99922.17;;;18.33;67.31
76229;BME280;65021;53.174;18.160;2023-04-24T07:54:37;99917.02;;;18.30;67.42
76229;BME280;65021;53.174;18.160;2023-04-24T07:57:03;99911.45;;;18.25;66.67
76229;BME280;65021;53.174;18.160;2023-04-24T07:59:30;99913.42;;;18.23;66.31
76229;BME280;65021;53.174;18.160;2023-04-24T08:01:57;99911.08;;;18.24;67.17
76229;BME280;65021;53.174;18.160;2023-04-24T08:04:24;99911.75;;;18.26;66.85
76229;BME280;65021;53.174;18.160;2023-04-24T08:06:50;99909.95;;;18.33;66.68
76229;BME280;65021;53.174;18.160;2023-04-24T08:09:17;99909.17;;;18.42;66.21
76229;BME280;65021;53.174;18.160;2023-04-24T08:11:43;99910.73;;;18.48;65.46
76229;BME280;65021;53.174;18.160;2023-04-24T08:14:10;99912.72;;;18.61;65.01
76229;BME280;65021;53.174;18.160;2023-04-24T08:16:38;99910.29;;;18.72;64.33
76229;BME280;65021;53.174;18.160;2023-04-24T08:19:05;99909.27;;;18.85;62.97
76229;BME280;65021;53.174;18.160;2023-04-24T08:21:32;99916.30;;;18.95;63.58
76229;BME280;65021;53.174;18.160;2023-04-24T08:23:58;99916.44;;;19.08;63.58
76229;BME280;65021;53.174;18.160;2023-04-24T08:26:25;99915.35;;;19.23;63.61
76229;BME280;65021;53.174;18.160;2023-04-24T08:28:51;99917.30;;;19.31;62.51
76229;BME280;65021;53.174;18.160;2023-04-24T08:31:18;99912.94;;;19.32;63.08
76229;BME280;65021;53.174;18.160;2023-04-24T08:33:45;99912.58;;;19.36;62.11
76229;BME280;65021;53.174;18.160;2023-04-24T08:36:12;99910.09;;;19.37;61.00
76229;BME280;65021;53.174;18.160;2023-04-24T08:38:38;99904.00;;;19.46;60.90
76229;BME280;65021;53.174;18.160;2023-04-24T08:41:06;99903.61;;;19.44;60.28
76229;BME280;65021;53.174;18.160;2023-04-24T08:43:34;99901.64;;;19.52;61.38
76229;BME280;65021;53.174;18.160;2023-04-24T08:46:03;99899.70;;;19.64;59.78
76229;BME280;65021;53.174;18.160;2023-04-24T08:48:31;99899.89;;;19.76;60.45
76229;BME280;65021;53.174;18.160;2023-04-24T08:50:59;99899.77;;;19.93;60.02
76229;BME280;65021;53.174;18.160;2023-04-24T08:53:26;99900.36;;;20.14;59.76
76229;BME280;65021;53.174;18.160;2023-04-24T08:55:54;99900.66;;;20.28;59.36
76229;BME280;65021;53.174;18.160;2023-04-24T08:58:22;99904.48;;;20.44;58.71
76229;BME280;65021;53.174;18.160;2023-04-24T09:00:54;99900.84;;;20.50;57.77
76229;BME280;65021;53.174;18.160;2023-04-24T09:03:21;99902.13;;;20.54;58.20
76229;BME280;65021;53.174;18.160;2023-04-24T09:05:49;99906.15;;;20.55;57.65
76229;BME280;65021;53.174;18.160;2023-04-24T09:08:19;99910.52;;;20.41;56.74
76229;BME280;65021;53.174;18.160;2023-04-24T09:10:46;99911.61;;;20.11;54.90
76229;BME280;65021;53.174;18.160;2023-04-24T09:13:13;99912.95;;;19.96;56.60
76229;BME280;65021;53.174;18.160;2023-04-24T09:15:40;99908.18;;;19.99;56.65
76229;BME280;65021;53.174;18.160;2023-04-24T09:18:07;99910.90;;;20.00;56.19
76229;BME280;65021;53.174;18.160;2023-04-24T09:20:34;99909.99;;;19.97;54.95
76229;BME280;65021;53.174;18.160;2023-04-24T09:23:02;99916.30;;;19.81;55.00
76229;BME280;65021;53.174;18.160;2023-04-24T09:25:32;99918.36;;;19.63;55.13
76229;BME280;65021;53.174;18.160;2023-04-24T09:28:04;99921.09;;;19.43;56.00
76229;BME280;65021;53.174;18.160;2023-04-24T09:30:32;99918.86;;;19.31;56.27
76229;BME280;65021;53.174;18.160;2023-04-24T09:33:13;99914.70;;;19.16;56.96
76229;BME280;65021;53.174;18.160;2023-04-24T09:35:49;99914.65;;;18.97;56.60
76229;BME280;65021;53.174;18.160;2023-04-24T09:38:16;99911.64;;;18.77;57.29
76229;BME280;65021;53.174;18.160;2023-04-24T09:40:43;99908.77;;;18.64;57.76
76229;BME280;65021;53.174;18.160;2023-04-24T09:43:12;99901.92;;;18.55;58.08
76229;BME280;65021;53.174;18.160;2023-04-24T09:45:39;99898.49;;;18.47;57.58
76229;BME280;65021;53.174;18.160;2023-04-24T09:48:09;99896.69;;;18.42;57.50
76229;BME280;65021;53.174;18.160;2023-04-24T09:50:36;99895.97;;;18.49;58.00
76229;BME280;65021;53.174;18.160;2023-04-24T09:53:04;99892.67;;;18.59;57.63
76229;BME280;65021;53.174;18.160;2023-04-24T09:55:31;99890.70;;;18.69;57.86
76229;BME280;65021;53.174;18.160;2023-04-24T09:57:59;99887.14;;;18.90;58.07
76229;BME280;65021;53.174;18.160;2023-04-24T10:00:29;99887.29;;;19.17;58.11
76229;BME280;65021;53.174;18.160;2023-04-24T10:05:28;99873.65;;;19.93;57.30
76229;BME280;65021;53.174;18.160;2023-04-24T10:08:06;99873.44;;;20.27;56.16
76229;BME280;65021;53.174;18.160;2023-04-24T10:10:35;99875.05;;;20.50;55.48
76229;BME280;65021;53.174;18.160;2023-04-24T10:13:03;99872.39;;;20.89;55.11
76229;BME280;65021;53.174;18.160;2023-04-24T10:15:31;99863.39;;;21.26;54.84
76229;BME280;65021;53.174;18.160;2023-04-24T10:17:58;99860.08;;;21.46;54.47
76229;BME280;65021;53.174;18.160;2023-04-24T10:20:27;99853.67;;;21.42;53.27
76229;BME280;65021;53.174;18.160;2023-04-24T10:22:56;99850.42;;;21.40;54.46
76229;BME280;65021;53.174;18.160;2023-04-24T10:25:28;99850.74;;;21.36;53.37
76229;BME280;65021;53.174;18.160;2023-04-24T10:27:55;99859.14;;;21.14;52.81
76229;BME280;65021;53.174;18.160;2023-04-24T10:30:30;99858.55;;;20.88;53.44
76229;BME280;65021;53.174;18.160;2023-04-24T10:33:05;99860.05;;;20.76;53.28
76229;BME280;65021;53.174;18.160;2023-04-24T10:35:37;99857.79;;;20.74;53.73
76229;BME280;65021;53.174;18.160;2023-04-24T10:38:23;99858.02;;;20.80;53.77
76229;BME280;65021;53.174;18.160;2023-04-24T10:40:51;99858.54;;;21.00;53.14
76229;BME280;65021;53.174;18.160;2023-04-24T10:43:18;99861.37;;;21.16;53.25
76229;BME280;65021;53.174;18.160;2023-04-24T10:46:05;99856.98;;;21.34;52.96
76229;BME280;65021;53.174;18.160;2023-04-24T10:48:33;99856.69;;;21.51;52.02
76229;BME280;65021;53.174;18.160;2023-04-24T10:51:00;99860.61;;;21.58;51.39
76229;BME280;65021;53.174;18.160;2023-04-24T10:53:29;99864.56;;;21.69;51.92
76229;BME280;65021;53.174;18.160;2023-04-24T10:58:42;99859.45;;;22.06;51.06
76229;BME280;65021;53.174;18.160;2023-04-24T11:01:26;99860.52;;;22.10;49.68
76229;BME280;65021;53.174;18.160;2023-04-24T11:03:58;99858.33;;;22.10;49.57
76229;BME280;65021;53.174;18.160;2023-04-24T11:09:02;99860.29;;;22.02;49.21
76229;BME280;65021;53.174;18.160;2023-04-24T11:11:30;99861.80;;;21.86;48.46
76229;BME280;65021;53.174;18.160;2023-04-24T11:16:28;99864.41;;;21.79;49.20
76229;BME280;65021;53.174;18.160;2023-04-24T11:29:38;99877.99;;;21.62;48.86
76229;BME280;65021;53.174;18.160;2023-04-24T11:32:29;99878.98;;;21.32;48.33
76229;BME280;65021;53.174;18.160;2023-04-24T11:35:19;99884.78;;;21.15;48.49
76229;BME280;65021;53.174;18.160;2023-04-24T11:37:49;99882.52;;;21.22;48.72
76229;BME280;65021;53.174;18.160;2023-04-24T11:40:18;99880.45;;;21.24;48.80
76229;BME280;65021;53.174;18.160;2023-04-24T11:42:47;99880.96;;;21.31;48.42
76229;BME280;65021;53.174;18.160;2023-04-24T11:45:17;99878.81;;;21.35;48.70
76229;BME280;65021;53.174;18.160;2023-04-24T11:47:44;99862.44;;;21.45;48.40
76229;BME280;65021;53.174;18.160;2023-04-24T11:50:13;99870.13;;;21.65;48.52
76229;BME280;65021;53.174;18.160;2023-04-24T11:52:41;99870.40;;;21.79;48.54
76229;BME280;65021;53.174;18.160;2023-04-24T11:55:23;99868.48;;;21.93;48.32
76229;BME280;65021;53.174;18.160;2023-04-24T11:57:53;99867.77;;;21.99;48.23
76229;BME280;65021;53.174;18.160;2023-04-24T12:00:22;99868.30;;;21.89;48.07
76229;BME280;65021;53.174;18.160;2023-04-24T12:02:49;99870.54;;;21.79;48.56
76229;BME280;65021;53.174;18.160;2023-04-24T12:05:23;99868.70;;;21.68;48.67
76229;BME280;65021;53.174;18.160;2023-04-24T12:07:50;99861.21;;;21.68;48.60
76229;BME280;65021;53.174;18.160;2023-04-24T12:10:24;99859.73;;;21.66;49.02
76229;BME280;65021;53.174;18.160;2023-04-24T12:12:51;99858.83;;;21.61;48.62
76229;BME280;65021;53.174;18.160;2023-04-24T12:15:19;99855.14;;;21.70;48.92
76229;BME280;65021;53.174;18.160;2023-04-24T12:17:47;99851.40;;;21.79;48.34
76229;BME280;65021;53.174;18.160;2023-04-24T12:20:14;99857.61;;;21.59;47.89
76229;BME280;65021;53.174;18.160;2023-04-24T12:22:50;99858.05;;;21.37;48.24
76229;BME280;65021;53.174;18.160;2023-04-24T12:25:18;99856.61;;;21.24;48.75
76229;BME280;65021;53.174;18.160;2023-04-24T12:27:46;99848.19;;;21.27;49.03
76229;BME280;65021;53.174;18.160;2023-04-24T12:30:15;99834.86;;;21.56;49.02
76229;BME280;65021;53.174;18.160;2023-04-24T12:32:46;99837.47;;;21.88;48.44
76229;BME280;65021;53.174;18.160;2023-04-24T12:35:18;99830.08;;;22.20;48.00
76229;BME280;65021;53.174;18.160;2023-04-24T12:37:46;99824.09;;;22.48;47.17
76229;BME280;65021;53.174;18.160;2023-04-24T12:40:14;99830.62;;;22.62;46.61
76229;BME280;65021;53.174;18.160;2023-04-24T12:42:46;99822.70;;;22.73;46.48
76229;BME280;65021;53.174;18.160;2023-04-24T12:45:14;99822.05;;;22.93;45.51
76229;BME280;65021;53.174;18.160;2023-04-24T12:47:42;99814.07;;;23.06;44.94
76229;BME280;65021;53.174;18.160;2023-04-24T12:50:13;99816.42;;;23.06;44.96
76229;BME280;65021;53.174;18.160;2023-04-24T12:52:40;99815.51;;;23.03;43.59
76229;BME280;65021;53.174;18.160;2023-04-24T12:55:08;99813.67;;;22.83;42.10
76229;BME280;65021;53.174;18.160;2023-04-24T12:57:37;99808.55;;;22.76;42.11
76229;BME280;65021;53.174;18.160;2023-04-24T13:00:06;99803.00;;;22.65;42.20
76229;BME280;65021;53.174;18.160;2023-04-24T13:02:33;99804.58;;;22.56;42.17
76229;BME280;65021;53.174;18.160;2023-04-24T13:05:00;99796.10;;;22.41;42.27
76229;BME280;65021;53.174;18.160;2023-04-24T13:07:27;99794.73;;;22.29;42.96
76229;BME280;65021;53.174;18.160;2023-04-24T13:09:55;99796.49;;;22.17;42.87